sensor_id;sensor_type;location;lat;lon;timestamp;P1;durP1;ratioP1;P2;durP2;ratioP2
59006;SDS011;44792;52.760;6.726;2023-05-07T00:00:02;10.07;;;6.65;;
59006;SDS011;44792;52.760;6.726;2023-05-07T00:02:32;9.68;;;6.32;;
59006;SDS011;44792;52.760;6.726;2023-05-07T00:04:58;11.73;;;6.82;;
59006;SDS011;44792;52.760;6.726;2023-05-07T00:07:23;8.68;;;7.15;;
59006;SDS011;44792;52.760;6.726;2023-05-07T00:09:49;10.48;;;6.82;;
59006;SDS011;44792;52.760;6.726;2023-05-07T00:12:15;13.95;;;8.00;;
59006;SDS011;44792;52.760;6.726;2023-05-07T00:14:41;14.15;;;8.57;;
59006;SDS011;44792;52.760;6.726;2023-05-07T00:17:07;11.50;;;7.75;;
59006;SDS011;44792;52.760;6.726;2023-05-07T00:19:32;13.15;;;8.00;;
59006;SDS011;44792;52.760;6.726;2023-05-07T00:21:58;12.70;;;8.52;;
59006;SDS011;44792;52.760;6.726;2023-05-07T00:24:24;15.88;;;9.00;;
59006;SDS011;44792;52.760;6.726;2023-05-07T00:26:49;13.25;;;8.90;;
59006;SDS011;44792;52.760;6.726;2023-05-07T00:29:15;12.25;;;8.63;;
59006;SDS011;44792;52.760;6.726;2023-05-07T00:31:41;13.40;;;9.98;;
59006;SDS011;44792;52.760;6.726;2023-05-07T00:34:07;16.17;;;9.27;;
59006;SDS011;44792;52.760;6.726;2023-05-07T00:36:32;16.65;;;9.52;;
59006;SDS011;44792;52.760;6.726;2023-05-07T00:39:01;14.05;;;9.75;;
59006;SDS011;44792;52.760;6.726;2023-05-07T00:41:28;12.95;;;9.45;;
59006;SDS011;44792;52.760;6.726;2023-05-07T00:43:55;15.52;;;10.23;;
59006;SDS011;44792;52.760;6.726;2023-05-07T00:46:21;14.75;;;10.43;;
59006;SDS011;44792;52.760;6.726;2023-05-07T00:48:49;16.55;;;10.07;;
59006;SDS011;44792;52.760;6.726;2023-05-07T00:51:15;16.55;;;10.68;;
59006;SDS011;44792;52.760;6.726;2023-05-07T00:53:42;19.77;;;12.50;;
59006;SDS011;44792;52.760;6.726;2023-05-07T00:56:08;17.92;;;11.40;;
59006;SDS011;44792;52.760;6.726;2023-05-07T00:58:35;17.80;;;12.27;;
59006;SDS011;44792;52.760;6.726;2023-05-07T01:01:01;16.90;;;10.93;;
59006;SDS011;44792;52.760;6.726;2023-05-07T01:03:27;19.20;;;12.73;;
59006;SDS011;44792;52.760;6.726;2023-05-07T01:05:53;18.30;;;11.65;;
59006;SDS011;44792;52.760;6.726;2023-05-07T01:08:22;19.35;;;12.20;;
59006;SDS011;44792;52.760;6.726;2023-05-07T01:10:50;18.67;;;11.85;;
59006;SDS011;44792;52.760;6.726;2023-05-07T01:13:16;18.48;;;12.13;;
59006;SDS011;44792;52.760;6.726;2023-05-07T01:15:43;17.42;;;12.07;;
59006;SDS011;44792;52.760;6.726;2023-05-07T01:18:09;17.52;;;12.27;;
59006;SDS011;44792;52.760;6.726;2023-05-07T01:20:35;21.23;;;13.77;;
59006;SDS011;44792;52.760;6.726;2023-05-07T01:23:01;19.70;;;13.05;;
59006;SDS011;44792;52.760;6.726;2023-05-07T01:25:28;16.75;;;11.82;;
59006;SDS011;44792;52.760;6.726;2023-05-07T01:27:55;21.35;;;12.57;;
59006;SDS011;44792;52.760;6.726;2023-05-07T01:30:21;20.10;;;12.23;;
59006;SDS011;44792;52.760;6.726;2023-05-07T01:32:51;20.88;;;12.15;;
59006;SDS011;44792;52.760;6.726;2023-05-07T01:35:22;19.58;;;12.52;;
59006;SDS011;44792;52.760;6.726;2023-05-07T01:37:52;21.10;;;13.18;;
59006;SDS011;44792;52.760;6.726;2023-05-07T01:40:19;19.00;;;12.40;;
59006;SDS011;44792;52.760;6.726;2023-05-07T01:42:45;17.38;;;12.50;;
59006;SDS011;44792;52.760;6.726;2023-05-07T01:45:11;19.65;;;12.88;;
59006;SDS011;44792;52.760;6.726;2023-05-07T01:47:37;21.58;;;12.38;;
59006;SDS011;44792;52.760;6.726;2023-05-07T01:50:05;21.15;;;13.63;;
59006;SDS011;44792;52.760;6.726;2023-05-07T01:52:33;24.80;;;14.05;;
59006;SDS011;44792;52.760;6.726;2023-05-07T01:54:59;21.73;;;13.45;;
59006;SDS011;44792;52.760;6.726;2023-05-07T01:57:25;20.85;;;13.75;;
59006;SDS011;44792;52.760;6.726;2023-05-07T01:59:51;20.00;;;13.80;;
59006;SDS011;44792;52.760;6.726;2023-05-07T02:02:17;23.98;;;13.52;;
59006;SDS011;44792;52.760;6.726;2023-05-07T02:04:42;21.35;;;13.80;;
59006;SDS011;44792;52.760;6.726;2023-05-07T02:07:08;21.77;;;14.50;;
59006;SDS011;44792;52.760;6.726;2023-05-07T02:09:34;22.90;;;14.43;;
59006;SDS011;44792;52.760;6.726;2023-05-07T02:11:59;25.52;;;15.93;;
59006;SDS011;44792;52.760;6.726;2023-05-07T02:14:25;24.65;;;14.68;;
59006;SDS011;44792;52.760;6.726;2023-05-07T02:16:51;23.00;;;14.50;;
59006;SDS011;44792;52.760;6.726;2023-05-07T02:19:16;24.10;;;15.32;;
59006;SDS011;44792;52.760;6.726;2023-05-07T02:21:43;26.05;;;16.33;;
59006;SDS011;44792;52.760;6.726;2023-05-07T02:24:08;24.23;;;16.00;;
59006;SDS011;44792;52.760;6.726;2023-05-07T02:26:34;27.27;;;15.45;;
59006;SDS011;44792;52.760;6.726;2023-05-07T02:29:00;24.10;;;15.10;;
59006;SDS011;44792;52.760;6.726;2023-05-07T02:31:25;28.55;;;16.35;;
59006;SDS011;44792;52.760;6.726;2023-05-07T02:33:51;29.27;;;16.33;;
59006;SDS011;44792;52.760;6.726;2023-05-07T02:36:17;28.63;;;16.60;;
59006;SDS011;44792;52.760;6.726;2023-05-07T02:38:42;28.13;;;16.60;;
59006;SDS011;44792;52.760;6.726;2023-05-07T02:41:09;27.15;;;16.30;;
59006;SDS011;44792;52.760;6.726;2023-05-07T02:43:35;28.17;;;17.02;;
59006;SDS011;44792;52.760;6.726;2023-05-07T02:46:05;27.20;;;16.67;;
59006;SDS011;44792;52.760;6.726;2023-05-07T02:48:32;30.75;;;17.75;;
59006;SDS011;44792;52.760;6.726;2023-05-07T02:50:58;34.55;;;17.98;;
59006;SDS011;44792;52.760;6.726;2023-05-07T02:53:25;28.88;;;17.77;;
59006;SDS011;44792;52.760;6.726;2023-05-07T02:56:00;30.58;;;18.27;;
59006;SDS011;44792;52.760;6.726;2023-05-07T02:58:26;29.67;;;18.00;;
59006;SDS011;44792;52.760;6.726;2023-05-07T03:00:52;28.58;;;16.63;;
59006;SDS011;44792;52.760;6.726;2023-05-07T03:03:20;31.67;;;18.02;;
59006;SDS011;44792;52.760;6.726;2023-05-07T03:05:45;35.03;;;18.63;;
59006;SDS011;44792;52.760;6.726;2023-05-07T03:08:11;32.42;;;18.83;;
59006;SDS011;44792;52.760;6.726;2023-05-07T03:10:38;34.30;;;19.05;;
59006;SDS011;44792;52.760;6.726;2023-05-07T03:13:03;30.90;;;18.48;;
59006;SDS011;44792;52.760;6.726;2023-05-07T03:15:30;33.63;;;18.42;;
59006;SDS011;44792;52.760;6.726;2023-05-07T03:17:55;31.80;;;18.02;;
59006;SDS011;44792;52.760;6.726;2023-05-07T03:20:21;32.70;;;19.15;;
59006;SDS011;44792;52.760;6.726;2023-05-07T03:22:47;34.05;;;20.48;;
59006;SDS011;44792;52.760;6.726;2023-05-07T03:25:13;37.53;;;21.15;;
59006;SDS011;44792;52.760;6.726;2023-05-07T03:27:39;39.00;;;21.60;;
59006;SDS011;44792;52.760;6.726;2023-05-07T03:30:07;34.03;;;20.35;;
59006;SDS011;44792;52.760;6.726;2023-05-07T03:32:34;39.45;;;21.58;;
59006;SDS011;44792;52.760;6.726;2023-05-07T03:35:00;34.30;;;20.75;;
59006;SDS011;44792;52.760;6.726;2023-05-07T03:37:26;32.00;;;19.15;;
59006;SDS011;44792;52.760;6.726;2023-05-07T03:39:52;37.75;;;20.88;;
59006;SDS011;44792;52.760;6.726;2023-05-07T03:42:17;36.50;;;19.08;;
59006;SDS011;44792;52.760;6.726;2023-05-07T03:44:43;35.50;;;20.48;;
59006;SDS011;44792;52.760;6.726;2023-05-07T03:47:08;35.67;;;20.55;;
59006;SDS011;44792;52.760;6.726;2023-05-07T03:49:35;34.50;;;21.08;;
59006;SDS011;44792;52.760;6.726;2023-05-07T03:52:01;42.47;;;21.60;;
59006;SDS011;44792;52.760;6.726;2023-05-07T03:54:27;35.67;;;21.55;;
59006;SDS011;44792;52.760;6.726;2023-05-07T03:56:53;34.97;;;19.88;;
59006;SDS011;44792;52.760;6.726;2023-05-07T03:59:18;34.55;;;19.45;;
59006;SDS011;44792;52.760;6.726;2023-05-07T04:01:44;31.60;;;20.17;;
59006;SDS011;44792;52.760;6.726;2023-05-07T04:04:10;33.38;;;19.88;;
59006;SDS011;44792;52.760;6.726;2023-05-07T04:06:36;33.28;;;20.10;;
59006;SDS011;44792;52.760;6.726;2023-05-07T04:09:02;34.58;;;19.30;;
59006;SDS011;44792;52.760;6.726;2023-05-07T04:11:28;37.05;;;20.73;;
59006;SDS011;44792;52.760;6.726;2023-05-07T04:13:54;35.10;;;20.88;;
59006;SDS011;44792;52.760;6.726;2023-05-07T04:16:19;34.05;;;20.15;;
59006;SDS011;44792;52.760;6.726;2023-05-07T04:18:45;31.77;;;18.90;;
59006;SDS011;44792;52.760;6.726;2023-05-07T04:21:20;34.85;;;20.05;;
59006;SDS011;44792;52.760;6.726;2023-05-07T04:23:46;32.85;;;20.27;;
59006;SDS011;44792;52.760;6.726;2023-05-07T04:26:13;30.13;;;19.48;;
59006;SDS011;44792;52.760;6.726;2023-05-07T04:28:39;27.92;;;18.50;;
59006;SDS011;44792;52.760;6.726;2023-05-07T04:31:05;33.83;;;18.73;;
59006;SDS011;44792;52.760;6.726;2023-05-07T04:33:32;27.67;;;17.17;;
59006;SDS011;44792;52.760;6.726;2023-05-07T04:35:58;33.22;;;17.70;;
59006;SDS011;44792;52.760;6.726;2023-05-07T04:38:31;31.92;;;18.00;;
59006;SDS011;44792;52.760;6.726;2023-05-07T04:40:58;27.55;;;19.35;;
59006;SDS011;44792;52.760;6.726;2023-05-07T04:43:28;33.80;;;17.48;;
59006;SDS011;44792;52.760;6.726;2023-05-07T04:45:53;28.65;;;18.05;;
59006;SDS011;44792;52.760;6.726;2023-05-07T04:48:19;28.42;;;17.50;;
59006;SDS011;44792;52.760;6.726;2023-05-07T04:50:49;30.48;;;16.45;;
59006;SDS011;44792;52.760;6.726;2023-05-07T04:53:15;31.88;;;16.77;;
59006;SDS011;44792;52.760;6.726;2023-05-07T04:55:42;27.45;;;18.17;;
59006;SDS011;44792;52.760;6.726;2023-05-07T04:58:07;26.92;;;16.38;;
59006;SDS011;44792;52.760;6.726;2023-05-07T05:00:33;27.10;;;17.00;;
59006;SDS011;44792;52.760;6.726;2023-05-07T05:02:59;29.98;;;16.92;;
59006;SDS011;44792;52.760;6.726;2023-05-07T05:05:25;30.33;;;18.60;;
59006;SDS011;44792;52.760;6.726;2023-05-07T05:07:51;29.80;;;17.15;;
59006;SDS011;44792;52.760;6.726;2023-05-07T05:10:16;28.65;;;18.48;;
59006;SDS011;44792;52.760;6.726;2023-05-07T05:12:42;26.00;;;16.52;;
59006;SDS011;44792;52.760;6.726;2023-05-07T05:15:10;25.10;;;16.27;;
59006;SDS011;44792;52.760;6.726;2023-05-07T05:17:37;28.40;;;17.75;;
59006;SDS011;44792;52.760;6.726;2023-05-07T05:20:02;29.55;;;16.58;;
59006;SDS011;44792;52.760;6.726;2023-05-07T05:22:29;27.85;;;17.35;;
59006;SDS011;44792;52.760;6.726;2023-05-07T05:24:56;27.92;;;16.90;;
59006;SDS011;44792;52.760;6.726;2023-05-07T05:27:22;24.35;;;16.00;;
59006;SDS011;44792;52.760;6.726;2023-05-07T05:29:48;26.15;;;15.57;;
59006;SDS011;44792;52.760;6.726;2023-05-07T05:32:13;26.60;;;16.38;;
59006;SDS011;44792;52.760;6.726;2023-05-07T05:34:39;27.25;;;16.58;;
59006;SDS011;44792;52.760;6.726;2023-05-07T05:37:05;26.85;;;15.73;;
59006;SDS011;44792;52.760;6.726;2023-05-07T05:39:31;30.40;;;18.15;;
59006;SDS011;44792;52.760;6.726;2023-05-07T05:41:56;27.70;;;17.00;;
59006;SDS011;44792;52.760;6.726;2023-05-07T05:44:22;29.02;;;16.88;;
59006;SDS011;44792;52.760;6.726;2023-05-07T05:46:48;28.83;;;17.00;;
59006;SDS011;44792;52.760;6.726;2023-05-07T05:49:14;29.00;;;16.77;;
59006;SDS011;44792;52.760;6.726;2023-05-07T05:51:40;29.77;;;17.58;;
59006;SDS011;44792;52.760;6.726;2023-05-07T05:54:06;30.48;;;16.65;;
59006;SDS011;44792;52.760;6.726;2023-05-07T05:56:32;25.73;;;16.92;;
59006;SDS011;44792;52.760;6.726;2023-05-07T05:58:58;24.40;;;16.83;;
59006;SDS011;44792;52.760;6.726;2023-05-07T06:01:24;34.22;;;18.85;;
59006;SDS011;44792;52.760;6.726;2023-05-07T06:03:50;29.73;;;17.52;;
59006;SDS011;44792;52.760;6.726;2023-05-07T06:06:16;30.17;;;18.50;;
59006;SDS011;44792;52.760;6.726;2023-05-07T06:08:41;31.00;;;18.27;;
59006;SDS011;44792;52.760;6.726;2023-05-07T06:11:07;29.75;;;17.48;;
59006;SDS011;44792;52.760;6.726;2023-05-07T06:13:33;31.50;;;17.77;;
59006;SDS011;44792;52.760;6.726;2023-05-07T06:15:59;31.05;;;18.38;;
59006;SDS011;44792;52.760;6.726;2023-05-07T06:18:24;27.50;;;16.48;;
59006;SDS011;44792;52.760;6.726;2023-05-07T06:20:51;31.45;;;18.02;;
59006;SDS011;44792;52.760;6.726;2023-05-07T06:23:17;29.17;;;18.48;;
59006;SDS011;44792;52.760;6.726;2023-05-07T06:25:48;29.42;;;17.98;;
59006;SDS011;44792;52.760;6.726;2023-05-07T06:28:15;28.63;;;17.20;;
59006;SDS011;44792;52.760;6.726;2023-05-07T06:30:41;36.20;;;19.75;;
59006;SDS011;44792;52.760;6.726;2023-05-07T06:33:06;29.30;;;17.85;;
59006;SDS011;44792;52.760;6.726;2023-05-07T06:35:32;32.60;;;18.73;;
59006;SDS011;44792;52.760;6.726;2023-05-07T06:37:58;29.98;;;18.00;;
59006;SDS011;44792;52.760;6.726;2023-05-07T06:40:24;28.83;;;18.23;;
59006;SDS011;44792;52.760;6.726;2023-05-07T06:42:50;31.77;;;18.42;;
59006;SDS011;44792;52.760;6.726;2023-05-07T06:45:16;27.02;;;16.63;;
59006;SDS011;44792;52.760;6.726;2023-05-07T06:47:42;35.03;;;19.40;;
59006;SDS011;44792;52.760;6.726;2023-05-07T06:50:07;34.53;;;19.33;;
59006;SDS011;44792;52.760;6.726;2023-05-07T06:52:34;32.35;;;20.00;;
59006;SDS011;44792;52.760;6.726;2023-05-07T06:55:00;30.20;;;19.13;;
59006;SDS011;44792;52.760;6.726;2023-05-07T06:57:26;35.78;;;19.88;;
59006;SDS011;44792;52.760;6.726;2023-05-07T06:59:52;33.28;;;18.73;;
59006;SDS011;44792;52.760;6.726;2023-05-07T07:02:17;32.30;;;18.38;;
59006;SDS011;44792;52.760;6.726;2023-05-07T07:04:43;31.05;;;19.00;;
59006;SDS011;44792;52.760;6.726;2023-05-07T07:07:10;33.75;;;20.08;;
59006;SDS011;44792;52.760;6.726;2023-05-07T07:09:35;31.80;;;19.42;;
59006;SDS011;44792;52.760;6.726;2023-05-07T07:12:01;39.05;;;21.23;;
59006;SDS011;44792;52.760;6.726;2023-05-07T07:14:27;34.10;;;18.83;;
59006;SDS011;44792;52.760;6.726;2023-05-07T07:16:52;35.42;;;19.58;;
59006;SDS011;44792;52.760;6.726;2023-05-07T07:19:18;33.63;;;19.48;;
59006;SDS011;44792;52.760;6.726;2023-05-07T07:21:45;37.45;;;21.55;;
59006;SDS011;44792;52.760;6.726;2023-05-07T07:24:11;33.15;;;21.13;;
59006;SDS011;44792;52.760;6.726;2023-05-07T07:26:37;35.90;;;20.40;;
59006;SDS011;44792;52.760;6.726;2023-05-07T07:29:05;36.50;;;20.55;;
59006;SDS011;44792;52.760;6.726;2023-05-07T07:31:31;35.08;;;20.42;;
59006;SDS011;44792;52.760;6.726;2023-05-07T07:33:57;32.17;;;18.58;;
59006;SDS011;44792;52.760;6.726;2023-05-07T07:36:23;37.88;;;20.42;;
59006;SDS011;44792;52.760;6.726;2023-05-07T07:38:48;31.48;;;18.40;;
59006;SDS011;44792;52.760;6.726;2023-05-07T07:41:14;38.20;;;20.20;;
59006;SDS011;44792;52.760;6.726;2023-05-07T07:43:40;33.35;;;19.02;;
59006;SDS011;44792;52.760;6.726;2023-05-07T07:46:06;33.88;;;19.90;;
59006;SDS011;44792;52.760;6.726;2023-05-07T07:48:31;36.40;;;20.10;;
59006;SDS011;44792;52.760;6.726;2023-05-07T07:50:57;36.17;;;20.90;;
59006;SDS011;44792;52.760;6.726;2023-05-07T07:53:22;35.60;;;21.25;;
59006;SDS011;44792;52.760;6.726;2023-05-07T07:55:48;37.40;;;21.67;;
59006;SDS011;44792;52.760;6.726;2023-05-07T07:58:14;37.28;;;20.42;;
59006;SDS011;44792;52.760;6.726;2023-05-07T08:00:39;42.10;;;21.95;;
59006;SDS011;44792;52.760;6.726;2023-05-07T08:03:05;35.20;;;20.08;;
59006;SDS011;44792;52.760;6.726;2023-05-07T08:05:33;39.58;;;20.55;;
59006;SDS011;44792;52.760;6.726;2023-05-07T08:07:59;37.60;;;19.83;;
59006;SDS011;44792;52.760;6.726;2023-05-07T08:10:25;40.08;;;20.10;;
59006;SDS011;44792;52.760;6.726;2023-05-07T08:12:51;40.58;;;20.02;;
59006;SDS011;44792;52.760;6.726;2023-05-07T08:15:16;37.17;;;19.88;;
59006;SDS011;44792;52.760;6.726;2023-05-07T08:17:42;32.30;;;19.55;;
59006;SDS011;44792;52.760;6.726;2023-05-07T08:20:08;34.53;;;19.48;;
59006;SDS011;44792;52.760;6.726;2023-05-07T08:22:35;34.28;;;19.98;;
59006;SDS011;44792;52.760;6.726;2023-05-07T08:25:01;37.33;;;21.08;;
59006;SDS011;44792;52.760;6.726;2023-05-07T08:27:27;35.72;;;20.70;;
59006;SDS011;44792;52.760;6.726;2023-05-07T08:29:53;33.90;;;21.13;;
59006;SDS011;44792;52.760;6.726;2023-05-07T08:32:20;34.40;;;20.65;;
59006;SDS011;44792;52.760;6.726;2023-05-07T08:34:46;36.47;;;20.65;;
59006;SDS011;44792;52.760;6.726;2023-05-07T08:37:12;33.92;;;20.55;;
59006;SDS011;44792;52.760;6.726;2023-05-07T08:39:38;34.05;;;20.05;;
59006;SDS011;44792;52.760;6.726;2023-05-07T08:42:04;32.63;;;19.48;;
59006;SDS011;44792;52.760;6.726;2023-05-07T08:44:32;34.55;;;19.63;;
59006;SDS011;44792;52.760;6.726;2023-05-07T08:46:59;33.25;;;19.55;;
59006;SDS011;44792;52.760;6.726;2023-05-07T08:49:27;33.80;;;19.55;;
59006;SDS011;44792;52.760;6.726;2023-05-07T08:51:53;36.38;;;19.65;;
59006;SDS011;44792;52.760;6.726;2023-05-07T08:54:20;33.58;;;19.40;;
59006;SDS011;44792;52.760;6.726;2023-05-07T08:56:46;34.75;;;20.35;;
59006;SDS011;44792;52.760;6.726;2023-05-07T08:59:12;30.45;;;18.63;;
59006;SDS011;44792;52.760;6.726;2023-05-07T09:01:38;32.60;;;19.83;;
59006;SDS011;44792;52.760;6.726;2023-05-07T09:04:04;33.78;;;19.75;;
59006;SDS011;44792;52.760;6.726;2023-05-07T10:16:18;25.95;;;15.02;;
59006;SDS011;44792;52.760;6.726;2023-05-07T10:18:44;26.67;;;15.50;;
59006;SDS011;44792;52.760;6.726;2023-05-07T10:21:11;23.40;;;15.45;;
59006;SDS011;44792;52.760;6.726;2023-05-07T10:23:41;25.73;;;16.27;;
59006;SDS011;44792;52.760;6.726;2023-05-07T10:26:23;24.05;;;16.10;;
59006;SDS011;44792;52.760;6.726;2023-05-07T10:28:53;25.65;;;15.77;;
59006;SDS011;44792;52.760;6.726;2023-05-07T10:31:31;23.30;;;15.70;;
59006;SDS011;44792;52.760;6.726;2023-05-07T10:34:09;24.42;;;16.25;;
59006;SDS011;44792;52.760;6.726;2023-05-07T10:39:04;23.88;;;15.90;;
59006;SDS011;44792;52.760;6.726;2023-05-07T10:41:31;24.13;;;15.70;;
59006;SDS011;44792;52.760;6.726;2023-05-07T10:43:56;21.90;;;14.15;;
59006;SDS011;44792;52.760;6.726;2023-05-07T10:46:26;26.38;;;14.95;;
59006;SDS011;44792;52.760;6.726;2023-05-07T10:51:28;22.23;;;15.15;;
59006;SDS011;44792;52.760;6.726;2023-05-07T11:04:23;18.88;;;13.40;;
59006;SDS011;44792;52.760;6.726;2023-05-07T11:12:16;23.02;;;15.10;;
59006;SDS011;44792;52.760;6.726;2023-05-07T11:15:01;25.98;;;15.65;;
59006;SDS011;44792;52.760;6.726;2023-05-07T11:17:28;22.73;;;14.48;;
59006;SDS011;44792;52.760;6.726;2023-05-07T11:19:57;22.42;;;14.77;;
59006;SDS011;44792;52.760;6.726;2023-05-07T11:25:01;27.70;;;14.00;;
59006;SDS011;44792;52.760;6.726;2023-05-07T11:27:27;20.88;;;14.82;;
59006;SDS011;44792;52.760;6.726;2023-05-07T11:29:54;18.83;;;13.55;;
59006;SDS011;44792;52.760;6.726;2023-05-07T11:32:26;21.63;;;14.40;;
59006;SDS011;44792;52.760;6.726;2023-05-07T11:34:57;20.73;;;13.70;;
59006;SDS011;44792;52.760;6.726;2023-05-07T11:37:24;21.30;;;14.88;;
59006;SDS011;44792;52.760;6.726;2023-05-07T11:40:01;20.35;;;13.73;;
59006;SDS011;44792;52.760;6.726;2023-05-07T11:42:35;17.80;;;13.20;;
59006;SDS011;44792;52.760;6.726;2023-05-07T11:45:02;18.75;;;13.52;;
59006;SDS011;44792;52.760;6.726;2023-05-07T11:47:29;22.67;;;14.38;;
59006;SDS011;44792;52.760;6.726;2023-05-07T11:49:55;21.58;;;15.07;;
59006;SDS011;44792;52.760;6.726;2023-05-07T11:52:22;21.60;;;14.60;;
59006;SDS011;44792;52.760;6.726;2023-05-07T11:54:50;21.60;;;14.52;;
59006;SDS011;44792;52.760;6.726;2023-05-07T11:57:16;19.15;;;14.13;;
59006;SDS011;44792;52.760;6.726;2023-05-07T11:59:42;21.25;;;14.73;;
59006;SDS011;44792;52.760;6.726;2023-05-07T12:02:15;22.88;;;14.15;;
59006;SDS011;44792;52.760;6.726;2023-05-07T12:04:42;20.70;;;14.18;;
59006;SDS011;44792;52.760;6.726;2023-05-07T12:07:11;24.42;;;15.43;;
59006;SDS011;44792;52.760;6.726;2023-05-07T12:09:38;21.60;;;14.93;;
59006;SDS011;44792;52.760;6.726;2023-05-07T12:12:04;19.60;;;14.05;;
59006;SDS011;44792;52.760;6.726;2023-05-07T12:14:30;21.23;;;14.52;;
59006;SDS011;44792;52.760;6.726;2023-05-07T12:16:58;20.52;;;15.73;;
59006;SDS011;44792;52.760;6.726;2023-05-07T12:19:28;21.33;;;14.10;;
59006;SDS011;44792;52.760;6.726;2023-05-07T12:21:55;21.17;;;14.63;;
59006;SDS011;44792;52.760;6.726;2023-05-07T12:24:22;19.80;;;14.75;;
59006;SDS011;44792;52.760;6.726;2023-05-07T12:26:48;20.95;;;15.18;;
59006;SDS011;44792;52.760;6.726;2023-05-07T12:29:14;19.75;;;15.02;;
59006;SDS011;44792;52.760;6.726;2023-05-07T12:31:43;21.38;;;15.48;;
59006;SDS011;44792;52.760;6.726;2023-05-07T12:34:10;23.15;;;15.30;;
59006;SDS011;44792;52.760;6.726;2023-05-07T12:36:39;18.73;;;14.20;;
59006;SDS011;44792;52.760;6.726;2023-05-07T12:39:09;21.88;;;14.35;;
59006;SDS011;44792;52.760;6.726;2023-05-07T12:44:23;20.35;;;14.38;;
59006;SDS011;44792;52.760;6.726;2023-05-07T12:46:56;19.33;;;13.23;;
59006;SDS011;44792;52.760;6.726;2023-05-07T12:49:24;20.10;;;15.07;;
59006;SDS011;44792;52.760;6.726;2023-05-07T12:51:50;19.10;;;14.50;;
59006;SDS011;44792;52.760;6.726;2023-05-07T12:54:29;17.73;;;13.20;;
59006;SDS011;44792;52.760;6.726;2023-05-07T12:57:02;17.50;;;12.95;;
59006;SDS011;44792;52.760;6.726;2023-05-07T12:59:33;20.55;;;14.02;;
59006;SDS011;44792;52.760;6.726;2023-05-07T13:02:02;18.77;;;13.35;;
59006;SDS011;44792;52.760;6.726;2023-05-07T13:04:28;18.08;;;13.15;;
59006;SDS011;44792;52.760;6.726;2023-05-07T13:06:53;21.85;;;13.45;;
59006;SDS011;44792;52.760;6.726;2023-05-07T13:09:19;17.20;;;12.48;;
59006;SDS011;44792;52.760;6.726;2023-05-07T13:11:45;17.83;;;13.88;;
59006;SDS011;44792;52.760;6.726;2023-05-07T13:14:10;21.77;;;14.73;;
59006;SDS011;44792;52.760;6.726;2023-05-07T13:16:37;20.85;;;14.05;;
59006;SDS011;44792;52.760;6.726;2023-05-07T13:19:02;19.95;;;13.50;;
59006;SDS011;44792;52.760;6.726;2023-05-07T13:21:29;18.50;;;13.32;;
59006;SDS011;44792;52.760;6.726;2023-05-07T13:23:56;18.95;;;13.50;;
59006;SDS011;44792;52.760;6.726;2023-05-07T13:26:23;22.58;;;15.07;;
59006;SDS011;44792;52.760;6.726;2023-05-07T13:28:49;19.23;;;14.15;;
59006;SDS011;44792;52.760;6.726;2023-05-07T13:31:16;17.63;;;13.20;;
59006;SDS011;44792;52.760;6.726;2023-05-07T13:33:42;17.27;;;13.27;;
59006;SDS011;44792;52.760;6.726;2023-05-07T13:36:08;15.68;;;11.98;;
59006;SDS011;44792;52.760;6.726;2023-05-07T13:38:34;18.25;;;13.15;;
59006;SDS011;44792;52.760;6.726;2023-05-07T13:41:00;17.98;;;13.75;;
59006;SDS011;44792;52.760;6.726;2023-05-07T13:43:26;16.25;;;11.98;;
59006;SDS011;44792;52.760;6.726;2023-05-07T13:45:51;16.42;;;12.18;;
59006;SDS011;44792;52.760;6.726;2023-05-07T13:48:17;16.73;;;12.57;;
59006;SDS011;44792;52.760;6.726;2023-05-07T13:50:43;17.88;;;13.00;;
59006;SDS011;44792;52.760;6.726;2023-05-07T13:53:08;16.77;;;11.98;;
59006;SDS011;44792;52.760;6.726;2023-05-07T13:55:34;15.63;;;12.23;;
59006;SDS011;44792;52.760;6.726;2023-05-07T13:58:00;16.23;;;12.57;;
59006;SDS011;44792;52.760;6.726;2023-05-07T14:00:28;15.90;;;11.32;;
59006;SDS011;44792;52.760;6.726;2023-05-07T14:02:54;17.63;;;12.00;;
59006;SDS011;44792;52.760;6.726;2023-05-07T14:05:21;16.00;;;11.52;;
59006;SDS011;44792;52.760;6.726;2023-05-07T14:07:50;14.32;;;11.63;;
59006;SDS011;44792;52.760;6.726;2023-05-07T14:10:17;14.40;;;11.15;;
59006;SDS011;44792;52.760;6.726;2023-05-07T14:12:44;14.80;;;11.57;;
59006;SDS011;44792;52.760;6.726;2023-05-07T14:15:10;14.77;;;11.38;;
59006;SDS011;44792;52.760;6.726;2023-05-07T14:17:36;13.98;;;10.93;;
59006;SDS011;44792;52.760;6.726;2023-05-07T14:20:02;14.18;;;9.95;;
59006;SDS011;44792;52.760;6.726;2023-05-07T14:22:28;12.05;;;9.88;;
59006;SDS011;44792;52.760;6.726;2023-05-07T14:24:53;13.65;;;10.10;;
59006;SDS011;44792;52.760;6.726;2023-05-07T14:27:19;14.07;;;10.63;;
59006;SDS011;44792;52.760;6.726;2023-05-07T14:29:45;14.07;;;10.93;;
59006;SDS011;44792;52.760;6.726;2023-05-07T14:32:16;13.32;;;11.20;;
59006;SDS011;44792;52.760;6.726;2023-05-07T14:34:44;12.70;;;9.98;;
59006;SDS011;44792;52.760;6.726;2023-05-07T14:37:10;13.05;;;11.05;;
59006;SDS011;44792;52.760;6.726;2023-05-07T14:39:36;15.32;;;11.63;;
59006;SDS011;44792;52.760;6.726;2023-05-07T14:42:02;14.30;;;11.40;;
59006;SDS011;44792;52.760;6.726;2023-05-07T14:44:28;14.77;;;12.38;;
59006;SDS011;44792;52.760;6.726;2023-05-07T14:46:54;15.30;;;11.40;;
59006;SDS011;44792;52.760;6.726;2023-05-07T14:49:20;16.92;;;11.75;;
59006;SDS011;44792;52.760;6.726;2023-05-07T14:51:46;19.88;;;12.05;;
59006;SDS011;44792;52.760;6.726;2023-05-07T14:54:12;15.73;;;11.25;;
59006;SDS011;44792;52.760;6.726;2023-05-07T14:56:39;13.93;;;9.40;;
59006;SDS011;44792;52.760;6.726;2023-05-07T14:59:05;12.52;;;9.55;;
59006;SDS011;44792;52.760;6.726;2023-05-07T15:01:31;12.98;;;9.25;;
59006;SDS011;44792;52.760;6.726;2023-05-07T15:03:57;10.32;;;8.60;;
59006;SDS011;44792;52.760;6.726;2023-05-07T15:06:23;11.68;;;9.63;;
59006;SDS011;44792;52.760;6.726;2023-05-07T15:08:49;11.63;;;8.65;;
59006;SDS011;44792;52.760;6.726;2023-05-07T15:11:15;11.50;;;8.98;;
59006;SDS011;44792;52.760;6.726;2023-05-07T15:13:41;11.43;;;8.98;;
59006;SDS011;44792;52.760;6.726;2023-05-07T15:16:07;13.02;;;9.38;;
59006;SDS011;44792;52.760;6.726;2023-05-07T15:18:33;11.88;;;9.48;;
59006;SDS011;44792;52.760;6.726;2023-05-07T15:20:59;11.05;;;9.05;;
59006;SDS011;44792;52.760;6.726;2023-05-07T15:23:25;12.88;;;9.90;;
59006;SDS011;44792;52.760;6.726;2023-05-07T15:25:51;11.20;;;9.63;;
59006;SDS011;44792;52.760;6.726;2023-05-07T15:28:17;14.75;;;10.07;;
59006;SDS011;44792;52.760;6.726;2023-05-07T15:30:43;13.48;;;9.63;;
59006;SDS011;44792;52.760;6.726;2023-05-07T15:33:09;12.63;;;10.02;;
59006;SDS011;44792;52.760;6.726;2023-05-07T15:35:34;12.60;;;10.45;;
59006;SDS011;44792;52.760;6.726;2023-05-07T15:38:00;12.63;;;8.82;;
59006;SDS011;44792;52.760;6.726;2023-05-07T15:40:27;10.75;;;9.00;;
59006;SDS011;44792;52.760;6.726;2023-05-07T15:42:56;14.65;;;10.23;;
59006;SDS011;44792;52.760;6.726;2023-05-07T15:45:22;14.30;;;9.70;;
59006;SDS011;44792;52.760;6.726;2023-05-07T15:47:48;11.77;;;9.25;;
59006;SDS011;44792;52.760;6.726;2023-05-07T15:50:14;12.98;;;9.27;;
59006;SDS011;44792;52.760;6.726;2023-05-07T15:52:40;14.23;;;9.68;;
59006;SDS011;44792;52.760;6.726;2023-05-07T15:55:06;13.32;;;9.90;;